EZY534 EGAC-EGGP
Flight info
| Callsign | EZY534 |
|---|---|
| Flight time | 0h 32m |
| Altitude | 21000 |
| Route | DUFFY L15 PEPOD Q38 SOSIM L28 PENIL |
| Aircraft | A320/M-SDE2E3FGHIJ1RWXYZ/LB1 |
Departure
| Time | 2026-04-29 22:17 |
|---|---|
| Airport | George Best Belfast City Airport (EGAC) |
Arrival
| Time | 2026-04-29 22:49 |
|---|---|
| Airport | Liverpool John Lennon Airport (EGGP) |
| Time | Latitude | Longitude | Altitude | Speed | Heading |
|---|---|---|---|---|---|
| 2026-04-29 21:53 | 54.61120 | -5.87664 | 22 ft | 0 kts | 115° |
| 2026-04-29 22:13 | 54.61119 | -5.87662 | 22 ft | 1 kts | 113° |
| 2026-04-29 22:13 | 54.61127 | -5.87647 | 22 ft | 4 kts | 21° |
| 2026-04-29 22:14 | 54.61139 | -5.87714 | 23 ft | 7 kts | 265° |
| 2026-04-29 22:14 | 54.61107 | -5.87780 | 22 ft | 7 kts | 222° |
| 2026-04-29 22:14 | 54.61085 | -5.87831 | 22 ft | 0 kts | 249° |
| 2026-04-29 22:14 | 54.61085 | -5.87833 | 22 ft | 0 kts | 251° |
| 2026-04-29 22:15 | 54.61084 | -5.87836 | 22 ft | 2 kts | 251° |
| 2026-04-29 22:15 | 54.61086 | -5.87867 | 22 ft | 2 kts | 283° |
| 2026-04-29 22:16 | 54.61105 | -5.87960 | 23 ft | 18 kts | 300° |
| 2026-04-29 22:16 | 54.61184 | -5.87999 | 23 ft | 18 kts | 33° |
| 2026-04-29 22:16 | 54.61483 | -5.87641 | 19 ft | 91 kts | 29° |
| 2026-04-29 22:16 | 54.62177 | -5.86809 | 26 ft | 149 kts | 36° |
| 2026-04-29 22:17 | 54.63063 | -5.85790 | 660 ft | 151 kts | 38° |
| 2026-04-29 22:17 | 54.63915 | -5.84777 | 1496 ft | 146 kts | 43° |
| 2026-04-29 22:17 | 54.64714 | -5.83774 | 2250 ft | 139 kts | 55° |
| 2026-04-29 22:17 | 54.65007 | -5.82318 | 2779 ft | 130 kts | 102° |
| 2026-04-29 22:18 | 54.64718 | -5.80844 | 3334 ft | 134 kts | 121° |
| 2026-04-29 22:18 | 54.64051 | -5.79617 | 3764 ft | 150 kts | 146° |
| 2026-04-29 22:18 | 54.63002 | -5.79059 | 4214 ft | 171 kts | 175° |
| 2026-04-29 22:18 | 54.61786 | -5.79598 | 4677 ft | 190 kts | 194° |
| 2026-04-29 22:19 | 54.60494 | -5.80415 | 5098 ft | 207 kts | 194° |
| 2026-04-29 22:19 | 54.59091 | -5.81295 | 5537 ft | 227 kts | 194° |
| 2026-04-29 22:19 | 54.57548 | -5.82257 | 6103 ft | 244 kts | 195° |
| 2026-04-29 22:19 | 54.55872 | -5.83299 | 6706 ft | 262 kts | 195° |
| 2026-04-29 22:20 | 54.54118 | -5.84386 | 7426 ft | 271 kts | 193° |
| 2026-04-29 22:20 | 54.52312 | -5.84936 | 8301 ft | 267 kts | 175° |
| 2026-04-29 22:20 | 54.50464 | -5.84430 | 9210 ft | 265 kts | 157° |
| 2026-04-29 22:20 | 54.48867 | -5.82965 | 10077 ft | 265 kts | 142° |
| 2026-04-29 22:21 | 54.47347 | -5.81111 | 10766 ft | 275 kts | 142° |
| 2026-04-29 22:21 | 54.45733 | -5.79148 | 11232 ft | 292 kts | 142° |
| 2026-04-29 22:21 | 54.44023 | -5.77083 | 11728 ft | 307 kts | 143° |
| 2026-04-29 22:21 | 54.42258 | -5.74963 | 12460 ft | 312 kts | 143° |
| 2026-04-29 22:22 | 54.40467 | -5.72818 | 13280 ft | 315 kts | 143° |
| 2026-04-29 22:22 | 54.38661 | -5.70662 | 14080 ft | 318 kts | 143° |
| 2026-04-29 22:22 | 54.36833 | -5.68481 | 14778 ft | 321 kts | 143° |
| 2026-04-29 22:22 | 54.34990 | -5.66283 | 15454 ft | 325 kts | 143° |
| 2026-04-29 22:23 | 54.33129 | -5.64067 | 16112 ft | 328 kts | 143° |
| 2026-04-29 22:23 | 54.31241 | -5.61821 | 16790 ft | 331 kts | 143° |
| 2026-04-29 22:23 | 54.29344 | -5.59562 | 17458 ft | 335 kts | 143° |
| 2026-04-29 22:23 | 54.27488 | -5.57143 | 18117 ft | 337 kts | 135° |
| 2026-04-29 22:24 | 54.25935 | -5.54132 | 18751 ft | 339 kts | 125° |
| 2026-04-29 22:24 | 54.24557 | -5.50833 | 19286 ft | 343 kts | 125° |
| 2026-04-29 22:24 | 54.23160 | -5.47511 | 19831 ft | 346 kts | 125° |
| 2026-04-29 22:24 | 54.21744 | -5.44156 | 20376 ft | 350 kts | 125° |
| 2026-04-29 22:25 | 54.20312 | -5.40775 | 20915 ft | 354 kts | 125° |
| 2026-04-29 22:25 | 54.18860 | -5.37354 | 21267 ft | 356 kts | 125° |
| 2026-04-29 22:25 | 54.17411 | -5.33941 | 21350 ft | 350 kts | 125° |
| 2026-04-29 22:25 | 54.16016 | -5.30657 | 21355 ft | 333 kts | 125° |
| 2026-04-29 22:26 | 54.14663 | -5.27474 | 21353 ft | 331 kts | 125° |
| 2026-04-29 22:26 | 54.13310 | -5.24295 | 21354 ft | 331 kts | 125° |
| 2026-04-29 22:26 | 54.11955 | -5.21116 | 21351 ft | 331 kts | 125° |
| 2026-04-29 22:26 | 54.10603 | -5.17950 | 21351 ft | 331 kts | 125° |
| 2026-04-29 22:27 | 54.09244 | -5.14773 | 21352 ft | 331 kts | 125° |
| 2026-04-29 22:27 | 54.07907 | -5.11651 | 21352 ft | 331 kts | 124° |
| 2026-04-29 22:27 | 54.06550 | -5.08481 | 21350 ft | 331 kts | 125° |
| 2026-04-29 22:27 | 54.05195 | -5.05319 | 21351 ft | 331 kts | 124° |
| 2026-04-29 22:28 | 54.03835 | -5.02151 | 21352 ft | 331 kts | 124° |
| 2026-04-29 22:28 | 54.02479 | -4.98998 | 21354 ft | 331 kts | 124° |
| 2026-04-29 22:28 | 54.01120 | -4.95845 | 21356 ft | 331 kts | 125° |
| 2026-04-29 22:28 | 53.99760 | -4.92693 | 21354 ft | 331 kts | 124° |
| 2026-04-29 22:29 | 53.98401 | -4.89541 | 21357 ft | 331 kts | 124° |
| 2026-04-29 22:29 | 53.97042 | -4.86384 | 21359 ft | 330 kts | 124° |
| 2026-04-29 22:29 | 53.95683 | -4.83235 | 21356 ft | 330 kts | 125° |
| 2026-04-29 22:29 | 53.94322 | -4.80094 | 21358 ft | 330 kts | 124° |
| 2026-04-29 22:30 | 53.92958 | -4.76963 | 21357 ft | 330 kts | 125° |
| 2026-04-29 22:30 | 53.91594 | -4.73833 | 21357 ft | 330 kts | 125° |
| 2026-04-29 22:30 | 53.90228 | -4.70696 | 21358 ft | 330 kts | 125° |
| 2026-04-29 22:30 | 53.88867 | -4.67571 | 21197 ft | 326 kts | 124° |
| 2026-04-29 22:31 | 53.87539 | -4.64524 | 20949 ft | 318 kts | 124° |
| 2026-04-29 22:31 | 53.86234 | -4.61534 | 20713 ft | 313 kts | 124° |
| 2026-04-29 22:31 | 53.84941 | -4.58582 | 20461 ft | 312 kts | 124° |
| 2026-04-29 22:31 | 53.83649 | -4.55644 | 20214 ft | 311 kts | 124° |
| 2026-04-29 22:32 | 53.82362 | -4.52711 | 19972 ft | 309 kts | 123° |
| 2026-04-29 22:32 | 53.81277 | -4.49594 | 19729 ft | 306 kts | 114° |
| 2026-04-29 22:32 | 53.80481 | -4.46268 | 19487 ft | 305 kts | 110° |
| 2026-04-29 22:32 | 53.79715 | -4.42926 | 19346 ft | 304 kts | 110° |
| 2026-04-29 22:33 | 53.78942 | -4.39597 | 19343 ft | 304 kts | 110° |
| 2026-04-29 22:33 | 53.78164 | -4.36268 | 19269 ft | 305 kts | 110° |
| 2026-04-29 22:33 | 53.77342 | -4.32977 | 19045 ft | 303 kts | 115° |
| 2026-04-29 22:33 | 53.76388 | -4.29807 | 18806 ft | 302 kts | 116° |
| 2026-04-29 22:34 | 53.75400 | -4.26680 | 18565 ft | 300 kts | 117° |
| 2026-04-29 22:34 | 53.74412 | -4.23610 | 18274 ft | 295 kts | 117° |
| 2026-04-29 22:34 | 53.73436 | -4.20592 | 17925 ft | 292 kts | 117° |
| 2026-04-29 22:34 | 53.72465 | -4.17581 | 17575 ft | 290 kts | 117° |
| 2026-04-29 22:35 | 53.71507 | -4.14595 | 17228 ft | 288 kts | 116° |
| 2026-04-29 22:35 | 53.70557 | -4.11625 | 16889 ft | 287 kts | 116° |
| 2026-04-29 22:35 | 53.69611 | -4.08667 | 16546 ft | 286 kts | 116° |
| 2026-04-29 22:35 | 53.68670 | -4.05722 | 16208 ft | 285 kts | 116° |
| 2026-04-29 22:36 | 53.67732 | -4.02788 | 15869 ft | 284 kts | 116° |
| 2026-04-29 22:36 | 53.66795 | -3.99866 | 15532 ft | 283 kts | 116° |
| 2026-04-29 22:36 | 53.65860 | -3.96955 | 15212 ft | 282 kts | 116° |
| 2026-04-29 22:36 | 53.64925 | -3.94047 | 14876 ft | 282 kts | 116° |
| 2026-04-29 22:37 | 53.63991 | -3.91145 | 14537 ft | 281 kts | 116° |
| 2026-04-29 22:37 | 53.63058 | -3.88252 | 14216 ft | 281 kts | 116° |
| 2026-04-29 22:37 | 53.62126 | -3.85366 | 13847 ft | 280 kts | 116° |
| 2026-04-29 22:37 | 53.61196 | -3.82489 | 13507 ft | 279 kts | 116° |
| 2026-04-29 22:38 | 53.60272 | -3.79637 | 13162 ft | 277 kts | 116° |
| 2026-04-29 22:38 | 53.59356 | -3.76801 | 12825 ft | 275 kts | 116° |
| 2026-04-29 22:38 | 53.58443 | -3.73982 | 12491 ft | 274 kts | 116° |
| 2026-04-29 22:38 | 53.57356 | -3.71328 | 12160 ft | 277 kts | 128° |
| 2026-04-29 22:39 | 53.56065 | -3.68913 | 11827 ft | 276 kts | 129° |
| 2026-04-29 22:39 | 53.54767 | -3.66555 | 11515 ft | 275 kts | 130° |
| 2026-04-29 22:39 | 53.53466 | -3.64198 | 11195 ft | 273 kts | 130° |
| 2026-04-29 22:39 | 53.52175 | -3.61863 | 10876 ft | 272 kts | 130° |
| 2026-04-29 22:40 | 53.50890 | -3.59544 | 10564 ft | 270 kts | 130° |
| 2026-04-29 22:40 | 53.49620 | -3.57251 | 10264 ft | 268 kts | 130° |
| 2026-04-29 22:40 | 53.48371 | -3.54998 | 9917 ft | 266 kts | 130° |
| 2026-04-29 22:40 | 53.47111 | -3.52729 | 9569 ft | 265 kts | 130° |
| 2026-04-29 22:41 | 53.45862 | -3.50488 | 9152 ft | 260 kts | 130° |
| 2026-04-29 22:41 | 53.44652 | -3.48321 | 8709 ft | 250 kts | 130° |
| 2026-04-29 22:41 | 53.43480 | -3.46229 | 8279 ft | 241 kts | 130° |
| 2026-04-29 22:41 | 53.42347 | -3.44212 | 7856 ft | 237 kts | 130° |
| 2026-04-29 22:42 | 53.41218 | -3.42202 | 7439 ft | 239 kts | 130° |
| 2026-04-29 22:42 | 53.40071 | -3.40152 | 7017 ft | 240 kts | 130° |
| 2026-04-29 22:42 | 53.38930 | -3.38099 | 6588 ft | 242 kts | 130° |
| 2026-04-29 22:42 | 53.37784 | -3.36031 | 6156 ft | 242 kts | 130° |
| 2026-04-29 22:43 | 53.36636 | -3.33958 | 5726 ft | 243 kts | 130° |
| 2026-04-29 22:43 | 53.35492 | -3.31890 | 5387 ft | 239 kts | 130° |
| 2026-04-29 22:43 | 53.34393 | -3.29911 | 5348 ft | 225 kts | 129° |
| 2026-04-29 22:43 | 53.33431 | -3.27844 | 5350 ft | 225 kts | 120° |
| 2026-04-29 22:44 | 53.32689 | -3.25644 | 5354 ft | 211 kts | 115° |
| 2026-04-29 22:44 | 53.32038 | -3.23526 | 5355 ft | 196 kts | 115° |
| 2026-04-29 22:44 | 53.31645 | -3.21353 | 4940 ft | 201 kts | 92° |
| 2026-04-29 22:44 | 53.31731 | -3.18961 | 4405 ft | 209 kts | 86° |
| 2026-04-29 22:45 | 53.31858 | -3.16533 | 3846 ft | 211 kts | 87° |
| 2026-04-29 22:45 | 53.31980 | -3.14108 | 3405 ft | 206 kts | 87° |
| 2026-04-29 22:45 | 53.32094 | -3.11776 | 3091 ft | 197 kts | 88° |
| 2026-04-29 22:45 | 53.32202 | -3.09548 | 2815 ft | 187 kts | 88° |
| 2026-04-29 22:46 | 53.32304 | -3.07442 | 2556 ft | 176 kts | 88° |
| 2026-04-29 22:46 | 53.32398 | -3.05480 | 2328 ft | 161 kts | 88° |
| 2026-04-29 22:46 | 53.32482 | -3.03737 | 2119 ft | 141 kts | 88° |
| 2026-04-29 22:46 | 53.32556 | -3.02196 | 1942 ft | 128 kts | 88° |
| 2026-04-29 22:47 | 53.32626 | -3.00720 | 1756 ft | 127 kts | 86° |
| 2026-04-29 22:47 | 53.32695 | -2.99238 | 1574 ft | 128 kts | 86° |
| 2026-04-29 22:47 | 53.32781 | -2.97765 | 1400 ft | 127 kts | 84° |
| 2026-04-29 22:47 | 53.32858 | -2.96297 | 1217 ft | 126 kts | 89° |
| 2026-04-29 22:48 | 53.32910 | -2.94835 | 1019 ft | 126 kts | 86° |
| 2026-04-29 22:48 | 53.32975 | -2.93363 | 842 ft | 126 kts | 86° |
| 2026-04-29 22:48 | 53.33041 | -2.91902 | 705 ft | 127 kts | 85° |
| 2026-04-29 22:48 | 53.33117 | -2.90443 | 549 ft | 126 kts | 87° |
| 2026-04-29 22:49 | 53.33184 | -2.88995 | 387 ft | 124 kts | 87° |
| 2026-04-29 22:49 | 53.33247 | -2.87548 | 223 ft | 125 kts | 86° |
| 2026-04-29 22:49 | 53.33312 | -2.86106 | 93 ft | 124 kts | 86° |
| 2026-04-29 22:49 | 53.33360 | -2.85071 | 89 ft | 46 kts | 86° |
| 2026-04-29 22:50 | 53.33376 | -2.84775 | 89 ft | 22 kts | 82° |
| 2026-04-29 22:50 | 53.33413 | -2.84533 | 91 ft | 21 kts | 61° |
| 2026-04-29 22:50 | 53.33484 | -2.84338 | 89 ft | 15 kts | 59° |
| 2026-04-29 22:50 | 53.33552 | -2.84249 | 90 ft | 5 kts | 319° |
| 2026-04-29 22:51 | 53.33558 | -2.84288 | 89 ft | 3 kts | 285° |
| 2026-04-29 22:51 | 53.33559 | -2.84360 | 89 ft | 10 kts | 262° |
| 2026-04-29 22:51 | 53.33548 | -2.84580 | 89 ft | 11 kts | 265° |
| 2026-04-29 22:52 | 53.33538 | -2.84794 | 91 ft | 21 kts | 265° |
| 2026-04-29 22:52 | 53.33527 | -2.85026 | 89 ft | 19 kts | 266° |
| 2026-04-29 22:52 | 53.33519 | -2.85215 | 89 ft | 13 kts | 265° |
| 2026-04-29 22:52 | 53.33512 | -2.85364 | 89 ft | 12 kts | 265° |
| 2026-04-29 22:53 | 53.33518 | -2.85495 | 90 ft | 10 kts | 319° |
| 2026-04-29 22:53 | 53.33565 | -2.85513 | 90 ft | 6 kts | 355° |
| 2026-04-29 22:53 | 53.33604 | -2.85509 | 91 ft | 5 kts | 7° |
| 2026-04-29 22:53 | 53.33636 | -2.85511 | 91 ft | 4 kts | 356° |
| 2026-04-29 22:54 | 53.33662 | -2.85514 | 93 ft | 3 kts | 356° |
| 2026-04-29 22:54 | 53.33666 | -2.85515 | 93 ft | 0 kts | 355° |